Time;durP1;ratioP1;P1;durP2;ratioP2;P2;SDS_P1;SDS_P2;PMS_P1;PMS_P2;Temp;Humidity;BMP_temperature;BMP_pressure;BME280_temperature;BME280_humidity;BME280_pressure;Samples;Min_cycle;Max_cycle;Signal;HPM_P1;HPM_P2
2023/10/08 00:02:27;;;;;;;172.60;129.57;;;;;15.30;97270.00;;;;5054726;28;20610;-82
2023/10/08 00:05:17;;;;;;;177.10;130.47;;;;;15.20;97266.00;;;;5062284;28;20254;-82
2023/10/08 00:08:09;;;;;;;188.40;137.97;;;;;15.10;97254.00;;;;5055327;28;20228;-81
2023/10/08 00:11:05;;;;;;;181.30;133.50;;;;;15.20;97239.00;;;;5053047;28;20700;-81
2023/10/08 00:13:56;;;;;;;186.83;136.20;;;;;15.50;97240.00;;;;5053608;28;20204;-81
2023/10/08 00:16:49;;;;;;;187.20;137.20;;;;;15.50;97254.00;;;;5049321;28;20330;-84
2023/10/08 00:19:39;;;;;;;179.23;132.23;;;;;15.10;97239.00;;;;5049446;28;20209;-83
2023/10/08 00:22:35;;;;;;;185.93;136.33;;;;;15.20;97231.00;;;;5054365;28;20722;-82
2023/10/08 00:25:27;;;;;;;180.03;134.90;;;;;15.30;97232.00;;;;5053207;28;20219;-81
2023/10/08 00:28:17;;;;;;;180.60;132.77;;;;;15.40;97230.00;;;;5053624;28;20219;-81
2023/10/08 00:31:12;;;;;;;178.57;133.13;;;;;15.10;97238.00;;;;5054121;28;20219;-83
2023/10/08 00:34:04;;;;;;;183.00;133.00;;;;;15.20;97230.00;;;;5054741;28;20274;-82
2023/10/08 00:36:53;;;;;;;173.40;130.87;;;;;14.70;97210.00;;;;5059161;28;20231;-81
2023/10/08 00:39:43;;;;;;;177.00;133.57;;;;;15.20;97214.00;;;;5058066;28;20203;-81
2023/10/08 00:42:34;;;;;;;188.33;136.70;;;;;14.80;97208.00;;;;5062417;28;20200;-81
2023/10/08 00:45:23;;;;;;;190.67;137.73;;;;;15.00;97230.00;;;;5060659;28;20689;-82
2023/10/08 00:48:16;;;;;;;182.70;130.33;;;;;14.20;97212.00;;;;5054956;28;20223;-81
2023/10/08 00:51:23;;;;;;;180.37;130.90;;;;;14.40;97216.00;;;;5056260;28;20720;-82
2023/10/08 00:54:17;;;;;;;188.17;131.20;;;;;14.90;97217.00;;;;5052574;28;20208;-82
2023/10/08 00:57:11;;;;;;;192.03;133.10;;;;;14.80;97220.00;;;;5058197;28;20243;-82
2023/10/08 01:00:03;;;;;;;190.37;133.03;;;;;14.70;97216.00;;;;5060100;28;20673;-81
2023/10/08 01:03:00;;;;;;;185.57;128.83;;;;;15.00;97225.00;;;;5055781;28;20590;-82
2023/10/08 01:05:50;;;;;;;183.67;127.57;;;;;15.10;97217.00;;;;5054670;28;20207;-82
2023/10/08 01:08:47;;;;;;;179.50;126.40;;;;;15.30;97230.00;;;;5057371;28;20212;-82
2023/10/08 01:11:45;;;;;;;184.43;131.93;;;;;15.00;97243.00;;;;5062103;28;20277;-82
2023/10/08 01:14:36;;;;;;;180.00;131.40;;;;;14.40;97230.00;;;;5057518;28;20219;-82
2023/10/08 01:17:31;;;;;;;176.77;128.97;;;;;14.30;97215.00;;;;5054762;28;20282;-82
2023/10/08 01:20:37;;;;;;;171.83;125.50;;;;;14.80;97229.00;;;;5068011;28;20619;-82
2023/10/08 01:23:28;;;;;;;170.67;124.20;;;;;15.00;97221.00;;;;5054428;28;20673;-80
2023/10/08 01:26:22;;;;;;;158.90;123.57;;;;;14.60;97205.00;;;;5054519;28;20693;-83
2023/10/08 01:29:19;;;;;;;150.57;121.07;;;;;14.40;97192.00;;;;5056423;28;20229;-84
2023/10/08 01:32:11;;;;;;;149.27;122.90;;;;;14.80;97191.00;;;;5060456;28;20242;-84
2023/10/08 01:35:00;;;;;;;149.70;119.67;;;;;14.70;97193.00;;;;5052116;28;20245;-84
2023/10/08 01:37:50;;;;;;;150.30;121.87;;;;;14.20;97180.00;;;;5048361;28;21025;-84
2023/10/08 01:40:41;;;;;;;146.37;117.70;;;;;14.70;97172.00;;;;5047881;28;20733;-84
2023/10/08 01:43:30;;;;;;;150.47;121.43;;;;;14.80;97175.00;;;;5061009;28;20200;-83
2023/10/08 01:46:21;;;;;;;157.20;122.63;;;;;14.20;97165.00;;;;5054184;28;20790;-82
2023/10/08 01:49:14;;;;;;;164.27;123.57;;;;;13.80;97163.00;;;;5057344;28;20270;-83
2023/10/08 01:52:07;;;;;;;161.63;122.33;;;;;14.10;97157.00;;;;5051624;28;20267;-83
2023/10/08 01:54:56;;;;;;;162.20;123.20;;;;;14.50;97153.00;;;;5050515;28;20216;-83
2023/10/08 01:57:47;;;;;;;153.97;117.50;;;;;14.20;97152.00;;;;5053968;28;20239;-83
2023/10/08 02:00:36;;;;;;;150.50;118.33;;;;;13.60;97147.00;;;;5045711;28;20197;-85
2023/10/08 02:03:25;;;;;;;150.33;118.07;;;;;13.90;97141.00;;;;5050955;28;20212;-84
2023/10/08 02:06:14;;;;;;;148.07;114.00;;;;;14.30;97150.00;;;;5050794;28;20248;-83
2023/10/08 02:09:07;;;;;;;154.03;120.03;;;;;14.40;97140.00;;;;5051373;28;20712;-83
2023/10/08 02:11:56;;;;;;;147.97;117.77;;;;;14.40;97147.00;;;;5050795;28;20229;-84
2023/10/08 02:14:48;;;;;;;136.60;114.37;;;;;14.40;97149.00;;;;5057889;28;20211;-83
2023/10/08 02:17:38;;;;;;;125.10;109.47;;;;;14.20;97140.00;;;;5045514;28;20230;-84
2023/10/08 02:20:27;;;;;;;129.17;112.47;;;;;14.30;97136.00;;;;5059604;28;20204;-83
2023/10/08 02:23:17;;;;;;;131.77;114.43;;;;;14.50;97140.00;;;;5057594;28;20208;-83
2023/10/08 02:26:07;;;;;;;130.70;114.63;;;;;13.90;97134.00;;;;5050423;28;20208;-82
2023/10/08 02:28:59;;;;;;;118.70;105.90;;;;;13.90;97132.00;;;;5047374;28;20232;-83
2023/10/08 02:31:50;;;;;;;127.03;112.23;;;;;14.20;97147.00;;;;5066156;28;20212;-82
2023/10/08 02:34:39;;;;;;;119.50;107.07;;;;;14.10;97146.00;;;;5059725;28;20254;-82
2023/10/08 02:37:28;;;;;;;118.57;106.13;;;;;14.00;97140.00;;;;5056733;28;20228;-82
2023/10/08 02:40:25;;;;;;;120.57;107.63;;;;;14.10;97149.00;;;;5055600;28;20680;-82
2023/10/08 02:43:15;;;;;;;119.83;107.17;;;;;13.80;97140.00;;;;5050085;28;20209;-83
2023/10/08 02:46:06;;;;;;;119.53;106.90;;;;;13.90;97143.00;;;;5055881;28;20202;-82
2023/10/08 02:48:57;;;;;;;116.13;104.00;;;;;14.20;97131.00;;;;5047068;28;20239;-82
2023/10/08 02:51:47;;;;;;;113.40;101.60;;;;;14.30;97140.00;;;;5051836;28;20242;-82
2023/10/08 02:54:37;;;;;;;116.43;104.27;;;;;14.10;97147.00;;;;5050546;28;20208;-83
2023/10/08 02:57:29;;;;;;;111.67;100.30;;;;;14.20;97145.00;;;;5042984;28;20212;-83
2023/10/08 03:00:20;;;;;;;116.90;104.53;;;;;14.20;97144.00;;;;5047738;28;20583;-83
2023/10/08 03:03:15;;;;;;;118.83;106.37;;;;;13.70;97140.00;;;;5049999;28;20196;-83
2023/10/08 03:06:11;;;;;;;122.93;109.87;;;;;13.80;97136.00;;;;5059066;28;20204;-83
2023/10/08 03:09:04;;;;;;;117.23;104.93;;;;;13.80;97143.00;;;;5044708;28;20614;-83
2023/10/08 03:11:53;;;;;;;114.80;102.90;;;;;13.80;97133.00;;;;5048765;28;20667;-83
2023/10/08 03:14:49;;;;;;;115.77;103.73;;;;;14.20;97132.00;;;;5044581;28;20558;-83
2023/10/08 03:17:48;;;;;;;116.50;104.13;;;;;14.30;97145.00;;;;5048970;28;20224;-83
2023/10/08 03:20:42;;;;;;;118.33;105.60;;;;;14.10;97130.00;;;;5043927;28;20207;-83
2023/10/08 03:23:34;;;;;;;115.83;103.17;;;;;13.90;97133.00;;;;5049836;28;20197;-84
2023/10/08 03:26:36;;;;;;;118.67;105.73;;;;;14.20;97124.00;;;;5048279;28;20204;-82
2023/10/08 03:29:30;;;;;;;118.57;105.77;;;;;14.20;97123.00;;;;5048937;28;20771;-84
2023/10/08 03:32:26;;;;;;;124.03;110.40;;;;;13.90;97101.00;;;;5057776;28;20196;-83
2023/10/08 03:35:17;;;;;;;128.63;113.30;;;;;14.20;97109.00;;;;5055204;28;20197;-84
2023/10/08 03:38:21;;;;;;;120.67;106.13;;;;;14.10;97120.00;;;;5049286;28;20242;-84
2023/10/08 03:41:16;;;;;;;122.70;107.17;;;;;14.30;97111.00;;;;5048811;28;20208;-82
2023/10/08 03:44:12;;;;;;;125.07;109.40;;;;;14.10;97095.00;;;;5049293;28;20216;-84
2023/10/08 03:47:09;;;;;;;120.20;104.37;;;;;13.80;97106.00;;;;5046655;28;20216;-83
2023/10/08 03:50:05;;;;;;;138.33;115.07;;;;;14.20;97106.00;;;;5049041;28;20561;-82
2023/10/08 03:52:55;;;;;;;118.20;105.17;;;;;14.00;97099.00;;;;5044921;28;20251;-83
2023/10/08 03:55:44;;;;;;;126.47;108.13;;;;;14.40;97109.00;;;;5044661;28;20197;-84
2023/10/08 03:58:41;;;;;;;127.07;110.17;;;;;14.30;97088.00;;;;5042570;28;20226;-83
2023/10/08 04:01:32;;;;;;;132.73;113.07;;;;;14.20;97099.00;;;;5048216;28;20200;-83
2023/10/08 04:04:30;;;;;;;132.50;113.47;;;;;14.30;97088.00;;;;5041883;28;20213;-81
2023/10/08 04:07:28;;;;;;;137.93;114.43;;;;;14.30;97100.00;;;;5048925;28;20573;-85
2023/10/08 04:10:39;;;;;;;136.67;112.90;;;;;14.10;97101.00;;;;5050515;28;20626;-83
2023/10/08 04:13:28;;;;;;;128.40;110.10;;;;;14.20;97094.00;;;;5050357;28;20215;-84
2023/10/08 04:16:20;;;;;;;141.03;115.07;;;;;14.50;97100.00;;;;5048854;28;20207;-83
2023/10/08 04:19:09;;;;;;;138.17;112.90;;;;;14.20;97089.00;;;;5050645;28;20603;-83
2023/10/08 04:22:00;;;;;;;137.13;114.23;;;;;14.30;97100.00;;;;5052563;28;20287;-84
2023/10/08 04:24:49;;;;;;;137.20;118.00;;;;;14.30;97090.00;;;;5045586;28;20708;-82
2023/10/08 04:27:39;;;;;;;133.83;112.10;;;;;14.60;97087.00;;;;5044409;28;20224;-83
2023/10/08 04:30:32;;;;;;;136.43;114.43;;;;;14.60;97096.00;;;;5048207;28;20212;-82
2023/10/08 04:33:23;;;;;;;148.83;119.77;;;;;14.40;97093.00;;;;5056779;28;20213;-82
2023/10/08 04:36:17;;;;;;;142.70;116.40;;;;;14.10;97089.00;;;;5039467;28;20601;-83
2023/10/08 04:39:13;;;;;;;153.17;122.30;;;;;14.50;97093.00;;;;5047855;28;20603;-83
2023/10/08 04:42:07;;;;;;;153.83;122.17;;;;;14.70;97095.00;;;;5046700;28;20582;-82
2023/10/08 04:44:58;;;;;;;137.87;117.87;;;;;14.40;97094.00;;;;5043275;28;20217;-83
2023/10/08 04:47:49;;;;;;;133.27;113.10;;;;;14.30;97074.00;;;;5043866;28;20693;-83
2023/10/08 04:50:44;;;;;;;135.43;114.53;;;;;14.00;97076.00;;;;5048881;28;20999;-83
2023/10/08 04:53:37;;;;;;;152.13;122.30;;;;;14.60;97082.00;;;;5039921;28;20203;-82
2023/10/08 04:56:28;;;;;;;159.20;121.63;;;;;14.10;97065.00;;;;5044547;28;20212;-85
2023/10/08 04:59:21;;;;;;;173.27;125.33;;;;;14.60;97079.00;;;;5044028;28;20221;-82
2023/10/08 05:02:19;;;;;;;205.83;134.37;;;;;14.80;97081.00;;;;5044270;28;20200;-83
2023/10/08 05:05:22;;;;;;;226.43;137.60;;;;;14.70;97092.00;;;;5038282;28;20713;-83
2023/10/08 05:08:28;;;;;;;179.33;127.33;;;;;14.60;97076.00;;;;5041523;28;20247;-82
2023/10/08 05:11:24;;;;;;;178.77;128.40;;;;;14.60;97062.00;;;;5043520;28;20220;-84
2023/10/08 05:14:28;;;;;;;182.07;129.07;;;;;14.60;97051.00;;;;5046076;28;20209;-84
2023/10/08 05:17:22;;;;;;;214.37;138.43;;;;;14.80;97052.00;;;;5047986;28;20246;-82
2023/10/08 05:20:19;;;;;;;205.67;131.73;;;;;14.70;97066.00;;;;5049954;28;20224;-82
2023/10/08 05:23:42;;;;;;;188.30;131.80;;;;;14.50;97061.00;;;;5049446;28;20236;-82
2023/10/08 05:26:41;;;;;;;155.27;118.53;;;;;14.70;97052.00;;;;5047550;28;20688;-80
2023/10/08 05:29:51;;;;;;;160.07;120.57;;;;;14.90;97079.00;;;;5051254;28;20221;-82
2023/10/08 05:33:05;;;;;;;167.73;121.67;;;;;14.40;97070.00;;;;5049495;28;20200;-82
2023/10/08 05:36:09;;;;;;;181.63;124.77;;;;;14.30;97075.00;;;;5051128;28;20582;-83
2023/10/08 05:39:01;;;;;;;184.43;124.93;;;;;14.70;97063.00;;;;5049838;28;20239;-81
2023/10/08 05:41:51;;;;;;;176.43;124.57;;;;;14.80;97078.00;;;;5048255;28;20211;-80
2023/10/08 05:44:45;;;;;;;172.80;127.03;;;;;14.20;97075.00;;;;5048692;28;20204;-81
2023/10/08 05:47:51;;;;;;;164.47;121.47;;;;;14.00;97077.00;;;;5048823;28;20587;-80
2023/10/08 05:50:43;;;;;;;159.73;122.27;;;;;14.50;97080.00;;;;5047299;28;20201;-81
2023/10/08 05:53:43;;;;;;;157.40;120.20;;;;;14.40;97070.00;;;;5049336;28;20196;-82
2023/10/08 05:56:52;;;;;;;160.07;121.50;;;;;14.50;97091.00;;;;5049427;28;20205;-82
2023/10/08 05:59:53;;;;;;;150.97;117.20;;;;;14.50;97085.00;;;;5048999;28;20263;-82
2023/10/08 06:03:00;;;;;;;158.80;119.37;;;;;14.80;97109.00;;;;5049067;28;20203;-82
2023/10/08 06:06:07;;;;;;;149.27;117.60;;;;;14.40;97104.00;;;;5040604;28;20602;-82
2023/10/08 06:12:10;;;;;;;157.13;124.13;;;;;14.80;97081.00;;;;5044818;28;20212;-82
2023/10/08 06:15:07;;;;;;;163.53;128.47;;;;;14.60;97098.00;;;;5046066;28;20236;-81
2023/10/08 06:18:04;;;;;;;156.63;124.23;;;;;14.80;97094.00;;;;5038132;28;20845;-80
2023/10/08 06:20:54;;;;;;;161.73;125.47;;;;;14.70;97090.00;;;;5044184;28;20264;-81
2023/10/08 06:23:43;;;;;;;159.60;124.30;;;;;15.00;97102.00;;;;5050663;28;20201;-81
2023/10/08 06:26:34;;;;;;;165.13;126.23;;;;;14.70;97078.00;;;;5050828;28;20208;-81
2023/10/08 06:29:29;;;;;;;171.17;129.33;;;;;14.90;97094.00;;;;5047537;28;21008;-81
2023/10/08 06:32:22;;;;;;;172.57;130.17;;;;;14.80;97086.00;;;;5041417;28;20205;-83
2023/10/08 06:35:17;;;;;;;169.97;129.67;;;;;15.30;97105.00;;;;5048833;28;20196;-81
2023/10/08 06:38:09;;;;;;;176.60;128.90;;;;;15.30;97116.00;;;;5048184;28;20229;-82
2023/10/08 06:40:59;;;;;;;173.47;132.67;;;;;15.10;97101.00;;;;5048735;28;20253;-83
2023/10/08 06:44:02;;;;;;;180.53;135.70;;;;;15.00;97095.00;;;;5038796;28;20213;-83
2023/10/08 06:46:54;;;;;;;164.40;125.87;;;;;15.20;97101.00;;;;5039293;28;20196;-83
2023/10/08 06:49:46;;;;;;;171.37;132.37;;;;;15.10;97086.00;;;;5048732;28;20276;-81
2023/10/08 06:52:36;;;;;;;164.27;130.33;;;;;15.30;97105.00;;;;5047159;28;20201;-82
2023/10/08 06:55:26;;;;;;;172.57;133.43;;;;;15.20;97108.00;;;;5051406;28;20209;-81
2023/10/08 06:58:17;;;;;;;164.40;134.50;;;;;15.50;97107.00;;;;5064600;28;20235;-81
2023/10/08 07:01:08;;;;;;;162.60;133.33;;;;;15.40;97105.00;;;;5067811;28;20220;-81
2023/10/08 07:04:03;;;;;;;157.03;130.93;;;;;15.10;97103.00;;;;5058821;28;20193;-83
2023/10/08 07:06:54;;;;;;;155.23;128.27;;;;;15.20;97109.00;;;;5058204;28;20196;-84
2023/10/08 07:09:43;;;;;;;158.53;131.70;;;;;15.60;97115.00;;;;5067386;28;20398;-82
2023/10/08 07:12:35;;;;;;;164.53;135.70;;;;;15.60;97123.00;;;;5065602;28;20677;-83
2023/10/08 07:15:26;;;;;;;176.00;138.83;;;;;15.80;97124.00;;;;5059601;28;20199;-83
2023/10/08 07:18:21;;;;;;;176.20;138.67;;;;;15.50;97120.00;;;;5060087;28;20228;-83
2023/10/08 07:21:12;;;;;;;171.63;136.73;;;;;15.70;97122.00;;;;5060057;28;20227;-83
2023/10/08 07:24:04;;;;;;;177.70;142.77;;;;;15.60;97129.00;;;;5062552;28;20219;-81
2023/10/08 07:26:55;;;;;;;159.60;133.93;;;;;15.50;97127.00;;;;5056919;28;20207;-83
2023/10/08 07:29:46;;;;;;;163.13;136.57;;;;;15.40;97128.00;;;;5047980;28;20209;-83
2023/10/08 07:32:38;;;;;;;169.67;138.40;;;;;15.80;97128.00;;;;5047413;28;20665;-81
2023/10/08 07:35:29;;;;;;;174.67;143.00;;;;;15.80;97132.00;;;;5055309;28;20208;-81
2023/10/08 07:38:19;;;;;;;176.93;145.37;;;;;15.80;97128.00;;;;5040607;28;20224;-82
2023/10/08 07:41:12;;;;;;;176.00;147.10;;;;;15.80;97126.00;;;;5042357;28;20217;-83
2023/10/08 07:44:01;;;;;;;174.47;145.37;;;;;15.80;97148.00;;;;5037871;28;20205;-84
2023/10/08 07:46:51;;;;;;;165.60;139.63;;;;;16.00;97150.00;;;;5045944;28;20209;-82
2023/10/08 07:49:43;;;;;;;165.83;140.13;;;;;16.10;97141.00;;;;5043256;28;20205;-82
2023/10/08 07:52:32;;;;;;;171.80;145.53;;;;;16.20;97148.00;;;;5043528;28;20205;-81
2023/10/08 07:55:22;;;;;;;179.67;149.53;;;;;16.20;97160.00;;;;5050103;28;20197;-84
2023/10/08 07:58:14;;;;;;;184.87;151.67;;;;;15.80;97174.00;;;;5050703;28;20239;-82
2023/10/08 08:01:07;;;;;;;174.70;148.67;;;;;15.70;97162.00;;;;5046167;28;20902;-81
2023/10/08 08:03:57;;;;;;;171.03;146.10;;;;;16.20;97158.00;;;;5038254;28;20216;-81
2023/10/08 08:06:49;;;;;;;160.50;138.80;;;;;16.10;97163.00;;;;5048412;28;20208;-81
2023/10/08 08:09:38;;;;;;;169.10;144.93;;;;;16.30;97183.00;;;;5040758;28;20266;-81
2023/10/08 08:12:32;;;;;;;167.97;145.63;;;;;16.50;97174.00;;;;5048349;28;20721;-82
2023/10/08 08:15:25;;;;;;;187.87;158.43;;;;;16.40;97175.00;;;;5042352;28;20294;-83
2023/10/08 08:18:22;;;;;;;199.57;165.77;;;;;16.40;97165.00;;;;5034930;28;20236;-81
2023/10/08 08:21:15;;;;;;;170.17;151.17;;;;;16.60;97166.00;;;;5039913;28;20240;-81
2023/10/08 08:24:05;;;;;;;175.00;154.30;;;;;16.40;97173.00;;;;5041142;28;20204;-82
2023/10/08 08:27:08;;;;;;;172.40;152.27;;;;;16.60;97177.00;;;;5039894;28;20208;-82
2023/10/08 08:30:01;;;;;;;170.83;150.97;;;;;17.00;97173.00;;;;5049940;28;20231;-82
2023/10/08 08:32:52;;;;;;;166.27;148.40;;;;;17.10;97186.00;;;;5045148;28;20283;-82
2023/10/08 08:35:41;;;;;;;175.17;156.03;;;;;17.00;97180.00;;;;5046416;28;20200;-81
2023/10/08 08:38:32;;;;;;;173.13;154.70;;;;;16.90;97185.00;;;;5046297;28;20224;-83
2023/10/08 08:41:22;;;;;;;174.10;155.63;;;;;17.20;97192.00;;;;5050557;28;20224;-82
2023/10/08 08:44:13;;;;;;;178.70;159.90;;;;;17.50;97190.00;;;;5044473;28;20216;-82
2023/10/08 08:47:04;;;;;;;183.03;164.00;;;;;17.70;97191.00;;;;5040457;28;20592;-81
2023/10/08 08:49:55;;;;;;;191.50;171.33;;;;;17.70;97192.00;;;;5055398;28;20878;-83
2023/10/08 08:52:45;;;;;;;191.53;171.90;;;;;17.80;97195.00;;;;5049992;28;20582;-82
2023/10/08 08:55:35;;;;;;;185.47;167.13;;;;;17.70;97183.00;;;;5050237;28;20204;-83
2023/10/08 08:58:25;;;;;;;190.43;170.43;;;;;17.60;97189.00;;;;5054176;28;20897;-81
2023/10/08 09:01:15;;;;;;;202.13;180.73;;;;;18.00;97191.00;;;;5052061;28;20231;-81
2023/10/08 09:04:05;;;;;;;204.83;183.40;;;;;18.30;97190.00;;;;5052839;28;20201;-81
2023/10/08 09:06:57;;;;;;;201.67;180.40;;;;;18.30;97181.00;;;;5046383;28;20209;-82
2023/10/08 09:09:46;;;;;;;205.10;183.53;;;;;18.50;97183.00;;;;5048794;28;20195;-82
2023/10/08 09:12:35;;;;;;;212.27;189.90;;;;;18.60;97180.00;;;;5051545;28;20279;-82
2023/10/08 09:15:25;;;;;;;222.50;198.80;;;;;18.80;97183.00;;;;5051769;28;20204;-82
2023/10/08 09:18:16;;;;;;;228.57;204.07;;;;;18.70;97179.00;;;;5047984;28;22047;-81
2023/10/08 09:21:18;;;;;;;231.07;205.87;;;;;19.10;97180.00;;;;5054381;28;20235;-81
2023/10/08 09:24:11;;;;;;;238.03;212.23;;;;;19.10;97203.00;;;;5054085;28;20205;-82
2023/10/08 09:27:01;;;;;;;233.37;208.63;;;;;19.10;97199.00;;;;5055138;28;20201;-83
2023/10/08 09:29:51;;;;;;;243.73;217.67;;;;;19.30;97191.00;;;;5050208;28;20225;-83
2023/10/08 09:32:41;;;;;;;251.17;224.63;;;;;19.20;97203.00;;;;5049143;28;20220;-81
2023/10/08 09:35:30;;;;;;;254.53;227.27;;;;;19.70;97201.00;;;;5054695;28;20204;-81
2023/10/08 09:38:23;;;;;;;250.43;223.67;;;;;19.90;97199.00;;;;5051396;28;20302;-86
2023/10/08 09:41:15;;;;;;;264.03;235.87;;;;;19.70;97203.00;;;;5050644;28;20705;-83
2023/10/08 09:44:05;;;;;;;275.43;245.13;;;;;20.30;97188.00;;;;5049158;28;20197;-82
2023/10/08 09:46:57;;;;;;;272.83;243.77;;;;;20.30;97188.00;;;;5044796;28;20238;-84
2023/10/08 09:49:52;;;;;;;282.17;251.97;;;;;20.20;97183.00;;;;5052959;28;20210;-81
2023/10/08 09:52:47;;;;;;;284.40;254.27;;;;;20.70;97181.00;;;;5045332;28;20197;-82
2023/10/08 09:55:37;;;;;;;278.57;249.13;;;;;19.80;97175.00;;;;5048299;28;20690;-81
2023/10/08 09:58:29;;;;;;;282.40;253.20;;;;;20.40;97175.00;;;;5051666;28;20216;-82
2023/10/08 10:01:19;;;;;;;291.50;260.67;;;;;21.10;97183.00;;;;5049335;28;20600;-83
2023/10/08 10:04:11;;;;;;;298.57;267.10;;;;;21.20;97201.00;;;;5044815;28;20201;-82
2023/10/08 10:07:12;;;;;;;304.77;272.53;;;;;20.80;97191.00;;;;5061317;28;20203;-82
2023/10/08 10:10:02;;;;;;;308.93;276.10;;;;;21.20;97188.00;;;;5048294;28;20196;-82
2023/10/08 10:12:51;;;;;;;313.37;280.47;;;;;21.20;97200.00;;;;5046195;28;20204;-82
2023/10/08 10:15:44;;;;;;;316.17;282.73;;;;;21.40;97185.00;;;;5049698;28;20208;-83
2023/10/08 10:18:35;;;;;;;323.50;289.43;;;;;21.90;97192.00;;;;5045943;28;20229;-82
2023/10/08 10:21:32;;;;;;;333.93;298.33;;;;;22.20;97192.00;;;;5048380;28;20217;-83
2023/10/08 10:24:34;;;;;;;330.83;294.90;;;;;22.40;97204.00;;;;5056211;28;20405;-81
2023/10/08 10:27:24;;;;;;;345.40;307.90;;;;;22.70;97201.00;;;;5055125;28;20626;-81
2023/10/08 10:30:18;;;;;;;353.00;316.07;;;;;22.80;97199.00;;;;5053460;28;20220;-83
2023/10/08 10:33:10;;;;;;;356.03;319.07;;;;;22.50;97192.00;;;;5052361;28;20196;-82
2023/10/08 10:36:04;;;;;;;366.50;328.40;;;;;23.30;97200.00;;;;5072259;28;20208;-84
2023/10/08 10:38:54;;;;;;;366.73;330.93;;;;;23.50;97201.00;;;;5063781;28;20259;-84
2023/10/08 10:41:44;;;;;;;376.10;339.60;;;;;23.40;97224.00;;;;5058103;28;20284;-82
2023/10/08 10:44:36;;;;;;;382.77;345.33;;;;;23.70;97225.00;;;;5059614;28;20201;-84
2023/10/08 10:47:42;;;;;;;393.00;354.97;;;;;23.60;97234.00;;;;5057123;28;20582;-83
2023/10/08 10:50:32;;;;;;;390.30;353.10;;;;;23.50;97230.00;;;;5054604;28;20247;-83
2023/10/08 10:53:20;;;;;;;395.17;357.80;;;;;23.70;97224.00;;;;5054746;28;20196;-84
2023/10/08 10:56:10;;;;;;;408.67;370.20;;;;;23.90;97220.00;;;;5055041;28;20200;-84
2023/10/08 10:59:06;;;;;;;415.30;374.43;;;;;23.60;97224.00;;;;5055239;28;20220;-82
2023/10/08 11:02:06;;;;;;;410.83;371.83;;;;;23.20;97232.00;;;;5052323;28;20221;-83
2023/10/08 11:04:55;;;;;;;408.87;369.17;;;;;23.60;97217.00;;;;5050418;28;20200;-84
2023/10/08 11:07:49;;;;;;;408.67;368.77;;;;;23.80;97220.00;;;;5044175;28;20246;-82
2023/10/08 11:10:40;;;;;;;407.40;367.93;;;;;24.10;97237.00;;;;5045151;28;20216;-82
2023/10/08 11:13:37;;;;;;;414.40;372.97;;;;;24.00;97235.00;;;;5047840;28;20215;-84
2023/10/08 11:16:26;;;;;;;423.70;381.60;;;;;24.20;97223.00;;;;5054347;28;20201;-81
2023/10/08 11:19:19;;;;;;;426.23;383.67;;;;;24.40;97215.00;;;;5050289;28;20220;-83
2023/10/08 11:22:15;;;;;;;437.43;393.63;;;;;24.70;97212.00;;;;5050942;28;20247;-82
2023/10/08 11:25:23;;;;;;;439.67;396.53;;;;;24.90;97211.00;;;;5052920;28;20215;-83
2023/10/08 11:28:13;;;;;;;442.03;398.00;;;;;24.90;97207.00;;;;5066720;28;20230;-83
2023/10/08 11:31:07;;;;;;;440.37;396.57;;;;;25.10;97210.00;;;;5065365;28;20215;-84
2023/10/08 11:34:01;;;;;;;453.53;410.20;;;;;25.20;97208.00;;;;5063981;28;20189;-85
2023/10/08 11:36:55;;;;;;;457.57;414.67;;;;;25.10;97231.00;;;;5059690;28;20235;-83
2023/10/08 11:39:46;;;;;;;455.13;414.77;;;;;25.10;97227.00;;;;5065064;28;20256;-83
2023/10/08 11:42:50;;;;;;;460.33;418.00;;;;;25.00;97224.00;;;;5070158;22;20580;-72
2023/10/08 11:45:40;;;;;;;456.23;414.73;;;;;25.20;97226.00;;;;5047517;28;20241;-72
2023/10/08 11:48:38;;;;;;;461.40;419.40;;;;;25.20;97230.00;;;;5039660;28;20592;-72
2023/10/08 11:51:27;;;;;;;462.57;420.80;;;;;25.20;97231.00;;;;5034484;28;20681;-72
2023/10/08 11:54:20;;;;;;;463.13;421.13;;;;;25.20;97242.00;;;;5031091;28;20220;-72
2023/10/08 11:57:09;;;;;;;467.67;425.33;;;;;25.30;97256.00;;;;5042842;28;20736;-72
2023/10/08 11:59:59;;;;;;;461.40;419.30;;;;;25.60;97252.00;;;;5055537;28;20899;-71
2023/10/08 12:02:49;;;;;;;458.37;417.87;;;;;25.80;97254.00;;;;5065577;28;20228;-72
2023/10/08 12:05:43;;;;;;;471.40;428.87;;;;;25.80;97270.00;;;;5057542;28;20625;-72
2023/10/08 12:08:39;;;;;;;469.87;427.83;;;;;25.80;97256.00;;;;5058113;28;20196;-71
2023/10/08 12:11:31;;;;;;;473.67;430.87;;;;;26.00;97256.00;;;;5055544;28;20216;-71
2023/10/08 12:14:20;;;;;;;481.90;438.53;;;;;25.90;97242.00;;;;5055952;28;20200;-71
2023/10/08 12:17:12;;;;;;;497.40;451.60;;;;;25.90;97249.00;;;;5052199;28;20234;-71
2023/10/08 12:20:12;;;;;;;481.83;438.43;;;;;26.00;97249.00;;;;5056700;28;20199;-72
2023/10/08 12:23:01;;;;;;;478.37;434.87;;;;;26.10;97233.00;;;;5061256;28;20220;-71
2023/10/08 12:25:52;;;;;;;501.73;454.60;;;;;26.10;97240.00;;;;5055606;28;20243;-72
2023/10/08 12:28:42;;;;;;;483.83;439.43;;;;;25.70;97227.00;;;;5054699;28;20199;-72
2023/10/08 12:31:33;;;;;;;481.87;437.67;;;;;25.60;97231.00;;;;5058510;28;20574;-71
2023/10/08 12:34:24;;;;;;;480.50;436.10;;;;;25.90;97217.00;;;;5057857;28;20218;-71
2023/10/08 12:37:14;;;;;;;512.67;463.40;;;;;25.70;97237.00;;;;5055724;28;20231;-73
2023/10/08 12:40:11;;;;;;;491.73;446.30;;;;;25.60;97225.00;;;;5060303;28;20220;-72
2023/10/08 12:43:00;;;;;;;489.43;443.13;;;;;25.40;97223.00;;;;5050522;28;20808;-71
2023/10/08 12:45:52;;;;;;;484.73;440.13;;;;;25.20;97222.00;;;;5052550;28;20246;-71
2023/10/08 12:48:43;;;;;;;477.87;434.07;;;;;25.40;97229.00;;;;5052306;28;20201;-71
2023/10/08 12:51:35;;;;;;;480.40;436.60;;;;;25.40;97230.00;;;;5054755;28;20211;-72
2023/10/08 12:54:28;;;;;;;472.40;428.13;;;;;25.40;97229.00;;;;5057641;28;20254;-72
2023/10/08 12:57:19;;;;;;;485.43;440.30;;;;;25.30;97226.00;;;;5058920;28;20254;-73
2023/10/08 13:00:09;;;;;;;483.43;438.00;;;;;25.40;97232.00;;;;5058306;28;20566;-72
2023/10/08 13:03:01;;;;;;;472.07;428.07;;;;;25.40;97228.00;;;;5052942;28;20587;-73
2023/10/08 13:05:52;;;;;;;459.90;417.13;;;;;25.50;97232.00;;;;5050880;28;20220;-72
2023/10/08 13:08:43;;;;;;;470.00;426.57;;;;;25.60;97219.00;;;;5053296;28;20205;-72
2023/10/08 13:11:34;;;;;;;467.07;424.07;;;;;25.80;97223.00;;;;5054931;28;20943;-72
2023/10/08 13:14:23;;;;;;;475.37;430.37;;;;;26.00;97209.00;;;;5058419;28;20270;-72
2023/10/08 13:17:12;;;;;;;481.63;436.63;;;;;26.00;97218.00;;;;5068353;28;20286;-72
2023/10/08 13:20:01;;;;;;;488.53;442.23;;;;;26.10;97208.00;;;;5062513;28;20316;-72
2023/10/08 13:22:50;;;;;;;489.60;443.77;;;;;26.50;97214.00;;;;5063252;28;20212;-72
2023/10/08 13:25:41;;;;;;;492.93;446.63;;;;;26.70;97197.00;;;;5058250;28;20274;-72
2023/10/08 13:28:30;;;;;;;499.70;452.87;;;;;26.70;97211.00;;;;5057396;28;20214;-72
2023/10/08 13:31:19;;;;;;;514.83;466.33;;;;;26.60;97205.00;;;;5065396;28;20206;-72
2023/10/08 13:34:11;;;;;;;518.90;470.90;;;;;26.00;97211.00;;;;5063351;28;20206;-72
2023/10/08 13:37:00;;;;;;;509.73;463.00;;;;;26.10;97210.00;;;;5065246;28;20248;-72
2023/10/08 13:39:49;;;;;;;511.33;464.13;;;;;26.10;97213.00;;;;5060357;28;20217;-72
2023/10/08 13:42:39;;;;;;;504.37;458.43;;;;;25.90;97207.00;;;;5057812;28;20224;-71
2023/10/08 13:45:32;;;;;;;514.30;466.37;;;;;25.80;97206.00;;;;5067067;28;20198;-72
2023/10/08 13:48:24;;;;;;;501.93;456.23;;;;;25.70;97213.00;;;;5063879;28;20599;-72